Time;durP1;ratioP1;P1;durP2;ratioP2;P2;SDS_P1;SDS_P2;PMS_P1;PMS_P2;Temp;Humidity;BMP_temperature;BMP_pressure;BME280_temperature;BME280_humidity;BME280_pressure;Samples;Min_cycle;Max_cycle;Signal;HPM_P1;HPM_P2
2022/01/30 00:00:43;;;;;;;7.60;4.28;;;;;;;6.16;100.00;99640.50;5073881;28;20366;-66
2022/01/30 00:03:09;;;;;;;5.68;3.33;;;;;;;6.19;100.00;99636.22;5076374;28;20032;-66
2022/01/30 00:05:34;;;;;;;9.63;4.35;;;;;;;6.18;100.00;99649.28;5066806;28;20058;-66
2022/01/30 00:08:01;;;;;;;7.82;4.22;;;;;;;6.19;100.00;99636.22;5071192;28;20047;-66
2022/01/30 00:10:26;;;;;;;6.28;3.63;;;;;;;6.20;100.00;99634.47;5075560;28;20016;-66
2022/01/30 00:12:56;;;;;;;7.72;3.97;;;;;;;6.15;100.00;99633.53;5072981;28;20072;-66
2022/01/30 00:15:37;;;;;;;8.43;4.38;;;;;;;6.14;100.00;99627.41;5077097;28;20305;-66
2022/01/30 00:21:02;;;;;;;6.40;4.13;;;;;;;6.17;100.00;99624.00;5084328;28;20284;-66
2022/01/30 00:23:31;;;;;;;7.85;4.15;;;;;;;6.18;100.00;99618.78;5077313;28;20021;-66
2022/01/30 00:25:57;;;;;;;6.85;4.05;;;;;;;6.16;100.00;99622.22;5073776;28;20370;-66
2022/01/30 00:28:25;;;;;;;8.38;4.53;;;;;;;6.21;100.00;99623.16;5076145;28;20362;-66
2022/01/30 00:30:52;;;;;;;6.50;4.00;;;;;;;6.17;100.00;99621.38;5075017;28;20016;-66
2022/01/30 00:33:18;;;;;;;7.40;4.05;;;;;;;6.16;100.00;99625.72;5076018;28;20017;-66
2022/01/30 00:35:43;;;;;;;8.13;4.13;;;;;;;6.15;100.00;99633.53;5077176;28;20241;-66
2022/01/30 00:38:15;;;;;;;8.15;4.38;;;;;;;6.16;100.00;99630.06;5074510;28;20191;-66
2022/01/30 00:40:41;;;;;;;5.90;3.85;;;;;;;6.10;100.00;99630.84;5078322;28;20032;-66
2022/01/30 00:43:07;;;;;;;6.78;4.22;;;;;;;6.14;100.00;99631.78;5075921;28;20047;-66
2022/01/30 00:45:33;;;;;;;7.85;4.55;;;;;;;6.15;100.00;99633.53;5075388;28;20371;-66
2022/01/30 00:47:59;;;;;;;7.40;4.80;;;;;;;6.18;100.00;99623.13;5077610;28;20021;-66
2022/01/30 00:50:24;;;;;;;9.38;5.13;;;;;;;6.24;100.00;99628.44;5075582;28;20021;-66
2022/01/30 00:52:53;;;;;;;10.90;6.07;;;;;;;6.22;100.00;99624.91;5076403;28;20028;-66
2022/01/30 00:55:19;;;;;;;10.48;6.18;;;;;;;6.21;100.00;99633.63;5078038;28;20212;-66
2022/01/30 00:57:45;;;;;;;13.43;6.60;;;;;;;6.20;100.00;99634.47;5075842;28;20029;-66
2022/01/30 01:00:11;;;;;;;9.57;5.72;;;;;;;6.23;100.00;99626.66;5074079;28;20097;-66
2022/01/30 01:02:37;;;;;;;9.57;6.07;;;;;;;6.31;100.00;99630.28;5077728;28;20083;-66
2022/01/30 01:05:05;;;;;;;11.38;5.80;;;;;;;6.30;100.00;99629.38;5076181;28;20327;-66
2022/01/30 01:07:32;;;;;;;9.25;5.60;;;;;;;6.29;100.00;99616.28;5074538;28;20025;-66
2022/01/30 01:10:08;;;;;;;10.82;6.75;;;;;;;6.26;100.00;99616.25;5076440;28;20040;-66
2022/01/30 01:23:43;;;;;;;9.85;5.90;;;;;;;6.25;100.00;99638.03;5055351;28;20096;-66
2022/01/30 01:26:09;;;;;;;8.90;5.65;;;;;;;6.23;100.00;99631.91;5072084;28;20017;-66
2022/01/30 01:28:34;;;;;;;9.27;5.72;;;;;;;6.24;100.00;99638.91;5075909;28;20016;-66
2022/01/30 01:31:00;;;;;;;7.95;4.72;;;;;;;6.29;100.00;99643.31;5079726;28;20036;-66
2022/01/30 01:33:33;;;;;;;6.93;4.68;;;;;;;6.28;100.00;99645.91;5078913;28;20084;-66
2022/01/30 01:35:59;;;;;;;7.15;4.75;;;;;;;6.24;100.00;99638.91;5074359;28;20301;-66
2022/01/30 01:38:24;;;;;;;8.82;4.75;;;;;;;6.24;100.00;99638.91;5077462;28;20019;-66
2022/01/30 01:40:54;;;;;;;7.20;4.13;;;;;;;6.25;100.00;99631.09;5073511;28;20086;-66
2022/01/30 01:43:21;;;;;;;7.18;4.50;;;;;;;6.24;100.00;99644.13;5076061;28;20035;-66
2022/01/30 01:45:49;;;;;;;8.30;5.10;;;;;;;6.28;100.00;99651.16;5076215;28;20044;-66
2022/01/30 01:48:15;;;;;;;10.05;5.53;;;;;;;6.20;100.00;99642.31;5072923;28;20038;-66
2022/01/30 01:50:45;;;;;;;10.05;5.57;;;;;;;6.20;100.00;99637.06;5075317;28;20020;-66
2022/01/30 01:53:15;;;;;;;9.30;5.85;;;;;;;6.19;100.00;99636.22;5074447;28;20040;-66
2022/01/30 01:55:42;;;;;;;10.55;5.50;;;;;;;6.16;100.00;99650.97;5075813;28;20296;-66
2022/01/30 01:58:08;;;;;;;8.70;4.90;;;;;;;6.17;100.00;99643.16;5074745;28;20020;-66
2022/01/30 02:00:34;;;;;;;8.98;5.95;;;;;;;6.12;100.00;99651.78;5078212;28;20020;-66
2022/01/30 02:03:00;;;;;;;8.20;4.82;;;;;;;6.03;100.00;99639.47;5077178;28;20086;-66
2022/01/30 02:05:28;;;;;;;9.95;5.68;;;;;;;6.01;100.00;99637.72;5074182;28;20032;-66
2022/01/30 02:10:37;;;;;;;7.05;4.65;;;;;;;5.98;100.00;99645.50;5077359;28;20016;-66
2022/01/30 02:14:22;;;;;;;7.70;4.53;;;;;;;5.94;100.00;99638.44;5073167;28;20044;-66
2022/01/30 02:27:00;;;;;;;5.10;3.33;;;;;;;5.84;100.00;99640.06;5073540;28;20267;-66
2022/01/30 02:29:26;;;;;;;5.15;3.10;;;;;;;5.81;100.00;99641.69;5072461;28;20016;-66
2022/01/30 02:31:55;;;;;;;7.30;3.90;;;;;;;5.80;100.00;99639.94;5074492;28;20240;-66
2022/01/30 02:34:28;;;;;;;9.65;3.33;;;;;;;5.82;100.00;99646.13;5075303;28;20193;-66
2022/01/30 02:36:54;;;;;;;11.65;4.35;;;;;;;5.85;100.00;99643.53;5073693;28;20025;-66
2022/01/30 02:39:20;;;;;;;9.57;3.63;;;;;;;5.89;100.00;99635.75;5075288;28;20366;-66
2022/01/30 02:41:47;;;;;;;9.10;4.70;;;;;;;5.94;100.00;99633.22;5072278;28;20031;-66
2022/01/30 02:46:45;;;;;;;8.27;4.53;;;;;;;6.11;100.00;99631.75;5073459;28;20020;-66
2022/01/30 02:51:50;;;;;;;9.38;5.38;;;;;;;6.08;100.00;99623.88;5074804;28;20224;-66
2022/01/30 02:54:17;;;;;;;13.02;5.22;;;;;;;6.13;100.00;99630.00;5076106;28;20308;-66
2022/01/30 02:56:42;;;;;;;11.63;5.95;;;;;;;6.12;100.00;99630.88;5072882;28;20055;-66
2022/01/30 02:59:08;;;;;;;11.73;5.57;;;;;;;6.13;100.00;99630.00;5071872;28;20263;-66
2022/01/30 03:01:34;;;;;;;9.38;5.93;;;;;;;6.11;100.00;99631.75;5074214;28;20021;-66
2022/01/30 03:04:00;;;;;;;13.10;6.05;;;;;;;6.08;100.00;99636.94;5075766;28;20017;-66
2022/01/30 03:06:27;;;;;;;14.77;6.43;;;;;;;6.03;100.00;99633.34;5072919;28;20252;-66
2022/01/30 03:08:53;;;;;;;13.25;6.88;;;;;;;6.04;100.00;99632.50;5075035;28;20028;-66
2022/01/30 03:11:18;;;;;;;12.57;6.82;;;;;;;6.04;100.00;99640.34;5073114;28;20031;-66
2022/01/30 03:13:44;;;;;;;14.75;6.03;;;;;;;6.00;100.00;99649.88;5069856;28;20086;-66
2022/01/30 03:16:09;;;;;;;13.07;6.40;;;;;;;5.95;100.00;99645.44;5079140;28;20031;-66
2022/01/30 03:18:36;;;;;;;11.18;5.10;;;;;;;5.96;100.00;99649.81;5073739;28;20342;-66
2022/01/30 03:21:02;;;;;;;9.02;5.13;;;;;;;5.96;100.00;99652.44;5074570;28;20182;-66
2022/01/30 03:23:29;;;;;;;13.48;5.13;;;;;;;5.96;100.00;99657.66;5073832;28;20200;-66
2022/01/30 03:25:58;;;;;;;7.47;4.22;;;;;;;5.97;100.00;99664.63;5073024;28;20028;-66
2022/01/30 03:28:24;;;;;;;13.13;4.78;;;;;;;5.92;100.00;99663.69;5075608;28;20040;-66
2022/01/30 03:30:54;;;;;;;11.02;5.72;;;;;;;5.91;100.00;99669.75;5073905;28;20339;-66
2022/01/30 03:33:20;;;;;;;8.25;4.50;;;;;;;5.90;100.00;99665.41;5073236;28;20040;-66
2022/01/30 03:35:45;;;;;;;13.75;4.28;;;;;;;5.91;100.00;99667.13;5074177;28;20320;-66
2022/01/30 03:38:11;;;;;;;13.50;4.70;;;;;;;5.86;100.00;99669.69;5072719;28;20058;-66
2022/01/30 03:40:36;;;;;;;8.50;4.32;;;;;;;5.80;100.00;99658.25;5072543;28;20104;-66
2022/01/30 03:43:03;;;;;;;10.38;4.50;;;;;;;5.68;100.00;99660.66;5075084;28;20020;-66
2022/01/30 03:45:28;;;;;;;13.52;4.47;;;;;;;5.65;100.00;99669.31;5074101;28;20025;-66
2022/01/30 03:47:56;;;;;;;10.07;3.78;;;;;;;5.53;100.00;99666.50;5074653;28;20020;-66
2022/01/30 03:50:24;;;;;;;7.38;4.00;;;;;;;5.40;100.00;99668.88;5075867;28;20051;-66
2022/01/30 03:52:50;;;;;;;11.55;3.75;;;;;;;5.28;100.00;99673.91;5084840;28;20216;-66
2022/01/30 03:55:15;;;;;;;13.95;3.40;;;;;;;5.04;100.00;99683.88;5086155;28;20023;-66
2022/01/30 03:57:41;;;;;;;7.60;3.30;;;;;;;4.81;100.00;99690.38;5080536;28;20012;-66
2022/01/30 04:00:07;;;;;;;7.95;3.85;;;;;;;4.67;100.00;99691.81;5078663;28;20025;-66
2022/01/30 04:02:33;;;;;;;6.22;3.40;;;;;;;4.56;100.00;99695.94;5077179;28;20020;-66
2022/01/30 04:04:59;;;;;;;4.85;2.92;;;;;;;4.35;100.00;99689.41;5075824;28;20024;-66
2022/01/30 04:07:25;;;;;;;5.90;3.38;;;;;;;4.27;100.00;99693.56;5075220;28;20320;-66
2022/01/30 04:09:52;;;;;;;10.45;3.35;;;;;;;4.22;100.00;99697.81;5079009;28;20040;-66
2022/01/30 04:12:18;;;;;;;8.90;3.75;;;;;;;4.17;100.00;99707.25;5073828;28;20032;-66
2022/01/30 04:14:45;;;;;;;13.52;3.47;;;;;;;4.17;100.00;99707.25;5076567;28;20043;-66
2022/01/30 04:17:10;;;;;;;5.75;2.97;;;;;;;4.11;100.00;99720.13;5079921;28;20296;-66
2022/01/30 04:19:36;;;;;;;6.00;3.50;;;;;;;4.04;100.00;99723.44;5073324;28;20023;-66
2022/01/30 04:22:02;;;;;;;9.30;3.38;;;;;;;3.97;100.00;99726.75;5079366;28;20017;-66
2022/01/30 04:24:28;;;;;;;10.60;4.22;;;;;;;4.02;100.00;99732.91;5075721;28;20073;-66
2022/01/30 04:26:53;;;;;;;8.23;3.17;;;;;;;4.11;100.00;99737.47;5075640;28;20047;-66
2022/01/30 04:29:19;;;;;;;8.00;3.90;;;;;;;4.16;100.00;99744.56;5077226;28;20044;-66
2022/01/30 04:31:45;;;;;;;11.57;3.40;;;;;;;4.20;100.00;99741.19;5078302;28;20024;-66
2022/01/30 04:34:11;;;;;;;11.20;3.58;;;;;;;4.15;100.00;99740.19;5077305;28;20044;-66
2022/01/30 04:36:43;;;;;;;10.13;3.05;;;;;;;4.12;100.00;99737.50;5076682;28;20035;-66
2022/01/30 04:57:56;;;;;;;18.63;3.25;;;;;;;3.52;100.00;99746.44;5075204;28;20020;-66
2022/01/30 05:07:48;;;;;;;12.55;3.00;;;;;;;3.53;100.00;99748.19;5076134;28;20028;-66
2022/01/30 05:10:14;;;;;;;14.48;3.15;;;;;;;3.48;100.00;99744.56;5075095;28;20048;-66
2022/01/30 05:12:48;;;;;;;6.03;2.75;;;;;;;3.47;100.00;99753.22;5072809;28;20108;-66
2022/01/30 05:15:15;;;;;;;9.95;2.72;;;;;;;3.50;100.00;99750.72;5076859;28;20093;-66
2022/01/30 05:17:42;;;;;;;11.40;2.53;;;;;;;3.47;100.00;99753.22;5077201;28;20016;-66
2022/01/30 05:20:09;;;;;;;17.50;3.10;;;;;;;3.40;100.00;99750.41;5073621;28;20030;-66
2022/01/30 05:22:34;;;;;;;16.13;3.33;;;;;;;3.37;100.00;99751.22;5077454;28;20362;-66
2022/01/30 05:25:00;;;;;;;10.45;2.55;;;;;;;3.33;100.00;99749.41;5071328;28;20020;-66
2022/01/30 05:27:26;;;;;;;12.05;2.47;;;;;;;3.25;100.00;99748.28;5073140;28;20320;-66
2022/01/30 05:29:52;;;;;;;16.38;2.78;;;;;;;3.19;100.00;99744.63;5075705;28;20039;-66
2022/01/30 05:32:17;;;;;;;18.80;2.50;;;;;;;3.23;100.00;99757.75;5077962;28;20080;-66
2022/01/30 05:34:43;;;;;;;6.55;2.38;;;;;;;3.22;100.00;99756.00;5071851;28;20013;-66
2022/01/30 05:37:11;;;;;;;20.38;3.80;;;;;;;3.22;100.00;99766.41;5076523;28;20013;-66
2022/01/30 05:39:37;;;;;;;19.75;3.20;;;;;;;3.18;100.00;99763.69;5072508;28;20021;-66
2022/01/30 05:42:03;;;;;;;7.40;3.05;;;;;;;3.24;100.00;99761.25;5074758;28;20024;-66
2022/01/30 05:44:43;;;;;;;10.10;2.75;;;;;;;3.33;100.00;99769.31;5073041;28;20016;-66
2022/01/30 05:47:16;;;;;;;10.20;2.97;;;;;;;3.48;100.00;99768.00;5070940;28;20025;-66
2022/01/30 05:49:43;;;;;;;;;;;;;;;3.50;100.00;99771.53;5075830;28;20020;-66
2022/01/30 05:52:08;;;;;;;19.20;3.17;;;;;;;3.60;100.00;99775.22;5071874;28;19905;-66
2022/01/30 05:54:33;;;;;;;8.02;2.53;;;;;;;3.59;100.00;99776.97;5076567;28;20031;-66
2022/01/30 05:57:01;;;;;;;4.72;1.70;;;;;;;3.64;100.00;99783.16;5075453;28;20020;-66
2022/01/30 05:59:26;;;;;;;7.45;2.50;;;;;;;3.65;100.00;99779.75;5072691;28;20313;-66
2022/01/30 06:01:51;;;;;;;7.60;2.67;;;;;;;3.67;100.00;99780.66;5073412;28;20072;-66
2022/01/30 06:04:17;;;;;;;15.32;3.38;;;;;;;3.59;100.00;99790.00;5074730;28;20036;-66
2022/01/30 06:06:49;;;;;;;7.80;2.00;;;;;;;3.54;100.00;99786.38;5073749;28;20080;-66
2022/01/30 06:11:44;;;;;;;14.10;1.75;;;;;;;3.42;100.00;99801.66;5073746;28;20016;-66
2022/01/30 06:14:09;;;;;;;6.90;2.40;;;;;;;3.42;100.00;99796.44;5071384;28;20341;-66
2022/01/30 06:16:35;;;;;;;10.82;3.13;;;;;;;3.34;100.00;99807.50;5075918;28;20024;-66
2022/01/30 06:19:01;;;;;;;14.13;3.28;;;;;;;3.26;100.00;99812.47;5074958;28;20037;-66
2022/01/30 06:21:27;;;;;;;10.55;2.78;;;;;;;3.25;100.00;99815.94;5074023;28;20101;-66
2022/01/30 06:23:53;;;;;;;5.32;2.22;;;;;;;3.18;100.00;99821.81;5073490;28;20029;-66
2022/01/30 06:26:18;;;;;;;15.00;3.30;;;;;;;3.10;100.00;99825.03;5072594;28;20100;-66
2022/01/30 06:28:44;;;;;;;11.45;2.50;;;;;;;3.01;100.00;99822.16;5072064;28;20024;-66
2022/01/30 06:31:09;;;;;;;2.65;1.77;;;;;;;2.95;100.00;99815.06;5075149;28;20020;-66
2022/01/30 06:33:34;;;;;;;16.38;3.15;;;;;;;2.84;100.00;99819.06;5077358;28;20032;-66
2022/01/30 06:36:00;;;;;;;4.07;2.50;;;;;;;2.72;100.00;99818.69;5083570;28;20032;-66
2022/01/30 06:38:25;;;;;;;8.70;2.42;;;;;;;2.60;100.00;99830.44;5074309;28;20215;-66
2022/01/30 06:40:51;;;;;;;5.57;1.83;;;;;;;2.50;100.00;99841.38;5074768;28;20024;-66
2022/01/30 06:43:16;;;;;;;10.65;2.78;;;;;;;2.47;100.00;99844.78;5071326;28;20070;-66
2022/01/30 06:45:42;;;;;;;12.65;2.90;;;;;;;2.43;100.00;99845.50;5076222;28;20219;-66
2022/01/30 06:48:08;;;;;;;9.18;2.90;;;;;;;2.36;100.00;99853.94;5074642;28;20028;-66
2022/01/30 06:50:34;;;;;;;9.90;2.75;;;;;;;2.32;100.00;99857.28;5069955;28;20024;-66
2022/01/30 06:52:59;;;;;;;10.82;2.90;;;;;;;2.31;100.00;99871.06;5070206;28;20021;-66
2022/01/30 06:55:25;;;;;;;18.90;3.47;;;;;;;2.35;100.00;99857.38;5077227;28;20034;-66
2022/01/30 06:57:50;;;;;;;8.57;2.78;;;;;;;2.38;100.00;99880.84;5076263;28;20025;-66
2022/01/30 07:00:16;;;;;;;29.15;3.42;;;;;;;2.38;100.00;99888.66;5074302;28;20020;-66
2022/01/30 07:02:41;;;;;;;11.77;2.88;;;;;;;2.43;100.00;99886.19;5077428;28;20048;-66
2022/01/30 07:05:07;;;;;;;20.60;3.47;;;;;;;2.37;100.00;99889.47;5075375;28;20020;-66
2022/01/30 07:07:32;;;;;;;7.13;2.25;;;;;;;2.34;100.00;99886.75;5072057;28;20044;-66
2022/01/30 07:09:58;;;;;;;14.45;3.03;;;;;;;2.27;100.00;99884.78;5078704;28;20021;-66
2022/01/30 07:12:24;;;;;;;6.43;2.53;;;;;;;2.24;100.00;99885.59;5072122;28;20044;-66
2022/01/30 07:14:49;;;;;;;7.85;2.90;;;;;;;2.19;100.00;99886.28;5076012;28;20021;-66
2022/01/30 07:17:15;;;;;;;14.00;3.22;;;;;;;2.24;100.00;99895.09;5079984;28;20027;-66
2022/01/30 07:19:41;;;;;;;21.23;3.63;;;;;;;2.35;100.00;99893.75;5076524;28;20028;-66
2022/01/30 07:22:06;;;;;;;22.60;3.80;;;;;;;2.60;100.00;99901.50;5077939;28;20047;-66
2022/01/30 07:24:31;;;;;;;15.95;4.13;;;;;;;2.64;100.00;99903.34;5070309;28;20025;-66
2022/01/30 07:26:57;;;;;;;17.08;3.90;;;;;;;2.74;100.00;99900.22;5069418;28;20024;-66
2022/01/30 07:29:22;;;;;;;14.70;3.38;;;;;;;2.73;100.00;99902.75;5075945;28;20240;-66
2022/01/30 07:31:48;;;;;;;11.65;3.45;;;;;;;2.84;100.00;99901.34;5074366;28;20374;-66
2022/01/30 07:34:13;;;;;;;23.75;3.60;;;;;;;2.87;100.00;99901.47;5070481;28;20032;-66
2022/01/30 07:36:41;;;;;;;20.35;3.40;;;;;;;2.84;100.00;99902.25;5076336;28;20033;-66
2022/01/30 07:39:11;;;;;;;8.38;3.42;;;;;;;2.86;100.00;99900.59;5071752;28;20025;-66
2022/01/30 07:41:37;;;;;;;10.32;3.47;;;;;;;2.90;100.00;99902.44;5071900;28;20027;-66
2022/01/30 07:44:04;;;;;;;12.25;3.13;;;;;;;2.93;100.00;99897.34;5074458;28;20084;-66
2022/01/30 07:46:30;;;;;;;15.20;4.25;;;;;;;3.05;100.00;99892.53;5074709;28;20056;-66
2022/01/30 07:48:56;;;;;;;10.90;3.45;;;;;;;3.16;100.00;99901.50;5072832;28;20248;-66
2022/01/30 07:51:21;;;;;;;7.85;3.17;;;;;;;3.24;100.00;99909.53;5075700;28;20189;-66
2022/01/30 07:53:47;;;;;;;14.55;4.22;;;;;;;3.30;100.00;99913.22;5072775;28;20028;-66
2022/01/30 07:56:12;;;;;;;25.45;8.32;;;;;;;3.41;100.00;99898.78;5074476;28;20074;-66
2022/01/30 07:58:38;;;;;;;23.27;7.38;;;;;;;3.59;100.00;99920.16;5074302;28;20016;-66
2022/01/30 08:01:04;;;;;;;28.83;5.85;;;;;;;3.65;100.00;99925.53;5072254;28;20126;-66
2022/01/30 08:03:30;;;;;;;21.20;4.85;;;;;;;3.66;100.00;99927.28;5070472;28;20363;-66
2022/01/30 08:05:55;;;;;;;15.90;4.60;;;;;;;3.70;100.00;99929.13;5073673;28;20025;-66
2022/01/30 08:08:20;;;;;;;17.00;3.65;;;;;;;3.79;100.00;99929.41;5071916;28;20075;-66
2022/01/30 08:10:46;;;;;;;11.52;3.30;;;;;;;3.90;100.00;99927.09;5071186;28;20088;-66
2022/01/30 08:13:12;;;;;;;21.85;4.00;;;;;;;4.01;100.00;99921.34;5075541;28;20036;-66
2022/01/30 08:15:37;;;;;;;19.48;3.70;;;;;;;4.22;100.00;99927.13;5079578;28;20016;-66
2022/01/30 08:18:02;;;;;;;16.27;3.13;;;;;;;4.41;100.00;99926.75;5070140;28;20016;-66
2022/01/30 08:20:28;;;;;;;20.80;3.95;;;;;;;4.53;100.00;99920.97;5077874;28;20017;-66
2022/01/30 08:22:55;;;;;;;6.63;3.08;;;;;;;4.59;100.00;99922.81;5075091;28;20024;-66
2022/01/30 08:25:24;;;;;;;10.43;3.25;;;;;;;4.59;100.00;99928.03;5072585;28;20016;-66
2022/01/30 08:27:50;;;;;;;13.85;3.58;;;;;;;4.50;100.00;99933.91;5073523;28;20024;-66
2022/01/30 08:30:16;;;;;;;29.48;3.78;;;;;;;4.56;100.00;99928.84;5069166;28;20131;-66
2022/01/30 08:32:48;;;;;;;17.17;3.92;;;;;;;4.81;100.00;99935.53;5071474;28;20080;-66
2022/01/30 08:35:14;;;;;;;;;;;;;;;5.15;99.76;99948.50;5076066;28;20084;-66
2022/01/30 08:37:40;;;;;;;17.83;3.78;;;;;;;5.76;98.05;99955.09;5077707;28;20100;-66
2022/01/30 08:40:09;;;;;;;14.82;3.85;;;;;;;6.57;94.46;99968.91;5075343;28;20079;-66
2022/01/30 08:42:35;;;;;;;11.10;2.92;;;;;;;7.25;91.94;99963.06;5074089;28;20320;-66
2022/01/30 08:45:01;;;;;;;13.23;3.58;;;;;;;7.68;88.13;99965.41;5078421;28;20088;-66
2022/01/30 08:47:27;;;;;;;17.63;4.03;;;;;;;7.88;86.11;99966.53;5073937;28;20040;-66
2022/01/30 08:49:52;;;;;;;14.98;3.22;;;;;;;7.88;84.90;99969.16;5074935;28;20055;-66
2022/01/30 08:52:19;;;;;;;7.97;2.30;;;;;;;7.99;85.79;99967.56;5079928;28;20016;-66
2022/01/30 08:54:48;;;;;;;17.60;3.50;;;;;;;8.36;85.06;99969.75;5077926;28;20020;-66
2022/01/30 08:57:14;;;;;;;25.85;3.95;;;;;;;8.65;82.67;99972.69;5078957;28;20091;-66
2022/01/30 08:59:39;;;;;;;18.63;3.45;;;;;;;9.07;82.33;99966.91;5079672;28;20255;-66
2022/01/30 09:02:05;;;;;;;24.63;3.45;;;;;;;9.25;81.57;99970.56;5075877;28;20220;-66
2022/01/30 09:04:30;;;;;;;11.35;3.10;;;;;;;8.23;82.73;99946.88;5078439;28;20050;-66
2022/01/30 09:06:56;;;;;;;14.18;3.13;;;;;;;7.53;85.46;99965.19;5079863;28;20025;-66
2022/01/30 09:09:21;;;;;;;23.60;4.38;;;;;;;7.25;86.79;99989.25;5074072;28;20017;-66
2022/01/30 09:11:47;;;;;;;24.98;3.53;;;;;;;7.55;87.17;99984.44;5074398;28;20016;-66
2022/01/30 09:14:13;;;;;;;22.35;3.83;;;;;;;7.74;87.24;99968.13;5078300;28;20332;-66
2022/01/30 09:16:38;;;;;;;20.27;3.35;;;;;;;7.81;86.15;99962.09;5074097;28;20248;-66
2022/01/30 09:19:04;;;;;;;11.15;2.78;;;;;;;7.36;87.53;99960.59;5077246;28;20091;-66
2022/01/30 09:21:29;;;;;;;14.27;3.88;;;;;;;7.11;88.69;99964.59;5076459;28;20063;-66
2022/01/30 09:23:55;;;;;;;16.75;2.83;;;;;;;6.99;89.73;99968.75;5075502;28;20024;-66
2022/01/30 09:26:21;;;;;;;10.75;2.90;;;;;;;6.90;89.30;99964.25;5076323;28;20327;-66
2022/01/30 09:28:47;;;;;;;16.17;2.47;;;;;;;6.90;89.95;99968.59;5075546;28;20016;-66
2022/01/30 09:31:12;;;;;;;19.88;3.25;;;;;;;6.83;90.82;99957.13;5076740;28;20028;-66
2022/01/30 09:33:39;;;;;;;15.07;2.80;;;;;;;6.79;89.58;99968.41;5076190;28;20023;-66
2022/01/30 09:36:05;;;;;;;15.05;3.25;;;;;;;6.88;90.91;99960.72;5075079;28;20024;-66
2022/01/30 09:38:30;;;;;;;13.65;3.55;;;;;;;6.89;91.09;99957.25;5075543;28;20343;-66
2022/01/30 09:40:57;;;;;;;10.77;2.50;;;;;;;6.90;92.05;99968.59;5075003;28;20095;-66
2022/01/30 09:43:22;;;;;;;25.25;3.75;;;;;;;6.89;90.98;99969.47;5076990;28;20034;-66
2022/01/30 09:45:49;;;;;;;11.30;3.13;;;;;;;6.94;90.53;99966.06;5076008;28;20021;-66
2022/01/30 09:48:18;;;;;;;26.38;3.33;;;;;;;6.88;91.22;99965.97;5074586;28;20021;-66
2022/01/30 09:50:44;;;;;;;18.05;4.30;;;;;;;6.94;91.61;99966.06;5077085;28;20012;-66
2022/01/30 09:53:10;;;;;;;27.27;4.40;;;;;;;7.65;89.88;99957.50;5075773;28;20208;-66
2022/01/30 09:55:35;;;;;;;15.38;3.22;;;;;;;7.42;88.98;99961.56;5074860;28;20040;-66
2022/01/30 09:58:00;;;;;;;18.75;4.15;;;;;;;7.19;89.85;99951.59;5075348;28;20365;-66
2022/01/30 10:00:26;;;;;;;17.67;3.90;;;;;;;7.16;88.89;99947.22;5074138;28;20070;-66
2022/01/30 10:02:51;;;;;;;22.48;2.85;;;;;;;7.08;88.05;99954.06;5077222;28;20028;-66
2022/01/30 10:05:17;;;;;;;15.45;3.28;;;;;;;7.02;88.71;99953.97;5075161;28;20059;-66
2022/01/30 10:07:51;;;;;;;14.57;3.17;;;;;;;7.08;89.82;99948.81;5073325;28;20295;-66
2022/01/30 10:10:18;;;;;;;19.90;2.75;;;;;;;7.13;88.77;99947.16;5075591;28;20100;-66
2022/01/30 10:13:14;;;;;;;27.15;2.78;;;;;;;7.22;87.51;99947.31;5076961;28;20036;-66
2022/01/30 10:15:52;;;;;;;10.23;2.45;;;;;;;7.28;85.96;99947.38;5074706;28;20032;-66
2022/01/30 10:18:21;;;;;;;11.00;2.67;;;;;;;7.29;85.14;99954.41;5076350;28;20254;-66
2022/01/30 10:20:48;;;;;;;21.08;2.28;;;;;;;7.24;85.62;99942.97;5075568;28;20178;-66
2022/01/30 10:23:14;;;;;;;7.90;2.67;;;;;;;7.35;84.73;99938.78;5076315;28;20024;-66
2022/01/30 10:25:50;;;;;;;9.52;2.05;;;;;;;7.46;83.90;99942.41;5077640;28;20208;-66
2022/01/30 10:28:25;;;;;;;8.23;1.95;;;;;;;7.43;83.95;99938.88;5075831;28;20016;-66
2022/01/30 10:31:03;;;;;;;17.23;2.13;;;;;;;7.43;83.32;99937.13;5075505;28;20336;-66
2022/01/30 10:33:45;;;;;;;15.02;2.83;;;;;;;7.30;82.44;99935.19;5078251;28;20021;-66
2022/01/30 10:36:12;;;;;;;10.15;2.00;;;;;;;7.43;81.39;99925.78;5073983;28;20017;-66
2022/01/30 10:38:41;;;;;;;18.02;2.78;;;;;;;7.44;81.52;99930.16;5075536;28;20347;-66
2022/01/30 10:41:19;;;;;;;16.42;2.58;;;;;;;7.43;82.68;99931.03;5070488;28;20020;-66
2022/01/30 10:44:01;;;;;;;11.25;2.13;;;;;;;7.22;80.18;99926.38;5072721;28;21231;-67
2022/01/30 10:46:39;;;;;;;17.77;3.00;;;;;;;7.21;81.17;99919.34;5075817;28;20021;-67
2022/01/30 10:49:10;;;;;;;17.08;3.13;;;;;;;7.18;80.71;99918.44;5070783;28;20024;-66
2022/01/30 10:51:36;;;;;;;20.52;3.08;;;;;;;6.96;81.71;99922.44;5072268;28;20032;-66
2022/01/30 10:54:19;;;;;;;14.98;2.53;;;;;;;6.87;82.96;99917.09;5072473;28;20078;-66
2022/01/30 10:56:45;;;;;;;11.73;2.28;;;;;;;6.82;82.47;99921.38;5071974;28;20020;-66
2022/01/30 10:59:11;;;;;;;20.65;2.53;;;;;;;6.85;79.79;99913.56;5078344;28;20324;-66
2022/01/30 11:01:41;;;;;;;12.05;2.30;;;;;;;6.93;79.28;99911.06;5074997;28;20024;-66
2022/01/30 11:04:19;;;;;;;12.25;2.75;;;;;;;7.00;80.62;99919.06;5074037;28;20216;-66
2022/01/30 11:06:46;;;;;;;10.13;2.58;;;;;;;7.05;79.87;99906.03;5077098;28;20339;-66
2022/01/30 11:09:17;;;;;;;26.67;2.63;;;;;;;7.07;81.86;99905.19;5070102;28;20009;-66
2022/01/30 11:11:49;;;;;;;18.73;3.47;;;;;;;7.14;82.01;99896.56;5073876;28;20048;-66
2022/01/30 11:14:17;;;;;;;7.73;2.13;;;;;;;7.08;80.24;99896.47;5075316;28;20036;-66
2022/01/30 11:17:02;;;;;;;7.13;1.83;;;;;;;6.95;79.36;99884.06;5073408;28;20019;-66
2022/01/30 11:19:33;;;;;;;16.77;2.55;;;;;;;6.95;79.70;99883.16;5074138;28;20132;-66
2022/01/30 11:22:00;;;;;;;16.38;2.75;;;;;;;6.79;80.36;99882.06;5074366;28;20012;-66
2022/01/30 11:24:27;;;;;;;17.90;2.75;;;;;;;6.78;80.20;99882.03;5077031;28;20016;-66
2022/01/30 11:26:53;;;;;;;14.65;2.65;;;;;;;6.64;79.94;99876.59;5071468;28;20028;-66
2022/01/30 11:29:20;;;;;;;13.75;2.35;;;;;;;6.61;81.32;99876.53;5074295;28;20013;-66
2022/01/30 11:31:46;;;;;;;6.47;1.90;;;;;;;6.99;80.50;99875.38;5072627;28;20044;-66
2022/01/30 11:34:12;;;;;;;22.15;3.03;;;;;;;7.29;80.42;99870.59;5071437;28;20045;-66
2022/01/30 11:36:43;;;;;;;13.15;3.33;;;;;;;7.10;80.60;99871.19;5075450;28;20048;-66
2022/01/30 11:39:14;;;;;;;23.83;2.83;;;;;;;6.93;80.49;99869.19;5071560;28;20048;-66
2022/01/30 11:41:39;;;;;;;9.77;1.63;;;;;;;7.09;79.96;99877.28;5074402;28;20024;-66
2022/01/30 11:44:17;;;;;;;7.20;1.80;;;;;;;7.24;80.65;99877.50;5073527;28;20334;-66
2022/01/30 11:47:03;;;;;;;16.30;2.35;;;;;;;7.28;78.14;99871.44;5070396;28;20029;-66
2022/01/30 11:49:39;;;;;;;14.98;2.15;;;;;;;7.28;79.46;99874.03;5064801;28;20033;-66
2022/01/30 11:52:06;;;;;;;9.27;2.75;;;;;;;7.56;77.74;99881.41;5074426;28;20020;-66
2022/01/30 11:54:33;;;;;;;15.55;2.20;;;;;;;7.73;76.73;99873.75;5076426;28;20296;-66
2022/01/30 11:56:59;;;;;;;18.48;2.67;;;;;;;7.59;77.86;99868.34;5078695;28;20133;-66
2022/01/30 11:59:38;;;;;;;19.92;1.80;;;;;;;7.34;77.10;99868.88;5075083;28;20087;-66
2022/01/30 12:02:29;;;;;;;11.27;2.00;;;;;;;6.96;77.49;99862.25;5073530;28;20066;-66
2022/01/30 12:05:01;;;;;;;13.45;2.65;;;;;;;7.17;75.99;99866.91;5066841;28;20044;-66
2022/01/30 12:07:39;;;;;;;14.68;1.65;;;;;;;7.56;75.08;99870.91;5072608;28;20193;-66
2022/01/30 12:10:20;;;;;;;9.55;1.73;;;;;;;7.94;75.57;99869.63;5075171;28;20007;-66
2022/01/30 12:13:04;;;;;;;10.88;1.63;;;;;;;8.05;74.45;99873.25;5080289;28;20263;-66
2022/01/30 12:15:40;;;;;;;15.70;2.33;;;;;;;8.00;74.12;99863.56;5078660;28;20190;-66
2022/01/30 12:18:10;;;;;;;12.68;2.58;;;;;;;7.66;74.96;99862.31;5081260;28;20028;-66
2022/01/30 12:21:08;;;;;;;18.83;2.67;;;;;;;7.67;76.67;99866.72;5084673;28;20035;-66
2022/01/30 12:23:39;;;;;;;12.18;1.85;;;;;;;7.64;76.43;99864.06;5079544;28;20096;-66
2022/01/30 12:26:14;;;;;;;9.68;2.00;;;;;;;7.61;76.62;99853.53;5087256;28;20087;-66
2022/01/30 12:28:42;;;;;;;17.20;2.33;;;;;;;7.59;75.53;99855.25;5087287;28;20316;-66
2022/01/30 12:31:38;;;;;;;9.80;2.28;;;;;;;7.58;74.69;99849.97;5087196;28;20043;-66
2022/01/30 12:34:09;;;;;;;8.25;2.08;;;;;;;7.51;75.57;99846.44;5086974;28;20033;-66
2022/01/30 12:36:39;;;;;;;17.33;2.47;;;;;;;7.58;76.61;99848.25;5093489;28;20024;-66